Map

Track Data

SID SEASON NUMBER BASIN SUBBASIN NAME ISO_TIME NATURE LAT LON WMO_WIND WMO_PRES WMO_AGENCY TRACK_TYPE DIST2LAND LANDFALL IFLAG USA_AGENCY USA_ATCF_ID USA_LAT USA_LON USA_RECORD USA_STATUS USA_WIND USA_PRES USA_SSHS USA_R34_NE USA_R34_SE USA_R34_SW USA_R34_NW USA_R50_NE USA_R50_SE USA_R50_SW USA_R50_NW USA_R64_NE USA_R64_SE USA_R64_SW USA_R64_NW USA_POCI USA_ROCI USA_RMW USA_EYE TOKYO_LAT TOKYO_LON TOKYO_GRADE TOKYO_WIND TOKYO_PRES TOKYO_R50_DIR TOKYO_R50_LONG TOKYO_R50_SHORT TOKYO_R30_DIR TOKYO_R30_LONG TOKYO_R30_SHORT TOKYO_LAND CMA_LAT CMA_LON CMA_CAT CMA_WIND CMA_PRES HKO_LAT HKO_LON HKO_CAT HKO_WIND HKO_PRES NEWDELHI_LAT NEWDELHI_LON NEWDELHI_GRADE NEWDELHI_WIND NEWDELHI_PRES NEWDELHI_CI NEWDELHI_DP NEWDELHI_POCI REUNION_LAT REUNION_LON REUNION_TYPE REUNION_WIND REUNION_PRES REUNION_TNUM REUNION_CI REUNION_RMW REUNION_R34_NE REUNION_R34_SE REUNION_R34_SW REUNION_R34_NW REUNION_R50_NE REUNION_R50_SE REUNION_R50_SW REUNION_R50_NW REUNION_R64_NE REUNION_R64_SE REUNION_R64_SW REUNION_R64_NW BOM_LAT BOM_LON BOM_TYPE BOM_WIND BOM_PRES BOM_TNUM BOM_CI BOM_RMW BOM_R34_NE BOM_R34_SE BOM_R34_SW BOM_R34_NW BOM_R50_NE BOM_R50_SE BOM_R50_SW BOM_R50_NW BOM_R64_NE BOM_R64_SE BOM_R64_SW BOM_R64_NW BOM_ROCI BOM_POCI BOM_EYE BOM_POS_METHOD BOM_PRES_METHOD NADI_LAT NADI_LON NADI_CAT NADI_WIND NADI_PRES WELLINGTON_LAT WELLINGTON_LON WELLINGTON_WIND WELLINGTON_PRES DS824_LAT DS824_LON DS824_STAGE DS824_WIND DS824_PRES TD9636_LAT TD9636_LON TD9636_STAGE TD9636_WIND TD9636_PRES TD9635_LAT TD9635_LON TD9635_WIND TD9635_PRES TD9635_ROCI NEUMANN_LAT NEUMANN_LON NEUMANN_CLASS NEUMANN_WIND NEUMANN_PRES MLC_LAT MLC_LON MLC_CLASS MLC_WIND MLC_PRES USA_GUST BOM_GUST BOM_GUST_PER REUNION_GUST REUNION_GUST_PER USA_SEAHGT USA_SEARAD_NE USA_SEARAD_SE USA_SEARAD_SW USA_SEARAD_NW STORM_SPEED STORM_DIR
1956040N07092 1956 16 NI BB NOT_NAMED 1956-02-08 18:00:00 TS 6.70000 91.6000 main 417 417 O________O____ jtwc_io IO011956 6.70000 91.6000 -1 6.70000 91.6000 TC 4 307
1956040N07092 1956 16 NI BB NOT_NAMED 1956-02-08 21:00:00 TS 6.82252 91.4350 main 441 441 P________P____ IO011956 6.82252 91.4350 -1 6.82252 91.4350 TC 4 315
1956040N07092 1956 16 NI BB NOT_NAMED 1956-02-09 00:00:00 TS 7.00000 91.3000 main 459 459 O________O____ jtwc_io IO011956 7.00000 91.3000 -1 7.00000 91.3000 TC 25 5 333
1956040N07092 1956 16 NI BB NOT_NAMED 1956-02-09 03:00:00 TS 7.27332 91.2066 main 481 481 P________PO___ IO011956 7.26998 91.2075 -1 7.26998 91.2075 TC 25 7.30000 91.2000 1 6 341
1956040N07092 1956 16 NI BB NOT_NAMED 1956-02-09 06:00:00 TS 7.60752 91.0875 main 505 505 O________OP___ jtwc_io IO011956 7.60000 91.1000 -1 7.60000 91.1000 TC 25 7.63759 91.0375 1 8 336
1956040N07092 1956 16 NI BB NOT_NAMED 1956-02-09 09:00:00 TS 7.95551 90.8946 main 546 546 P________PP___ IO011956 7.95003 90.9001 -1 7.95003 90.9001 TC 25 7.97013 90.8799 1 8 332
1956040N07092 1956 16 NI BB NOT_NAMED 1956-02-09 12:00:00 TS 8.29753 90.7108 main 581 581 O________OP___ jtwc_io IO011956 8.30000 90.7000 -1 8.30000 90.7000 TC 25 8.29260 90.7323 1 7 335
1956040N07092 1956 16 NI BB NOT_NAMED 1956-02-09 15:00:00 TS 8.59999 90.5850 main 609 609 P________PO___ IO011956 8.59999 90.5775 -1 8.59999 90.5775 TC 25 8.60000 90.6000 1 6 341
1956040N07092 1956 16 NI BB NOT_NAMED 1956-02-09 18:00:00 TS 8.89745 90.4975 main 637 637 O________OP___ jtwc_io IO011956 8.90000 90.5000 -1 8.90000 90.5000 TC 25 8.89234 90.4924 1 7 345
1956040N07092 1956 16 NI BB NOT_NAMED 1956-02-09 21:00:00 TS 9.22489 90.4104 main 665 665 P________PP___ IO011956 9.24247 90.3976 -1 9.24247 90.3976 TC 25 9.18971 90.4359 1 7 353
1956040N07092 1956 16 NI BB NOT_NAMED 1956-02-10 00:00:00 TS 9.57241 90.4205 main 693 692 O________OP___ jtwc_io IO011956 9.60000 90.4000 -1 9.60000 90.4000 TC 25 9.51723 90.4615 1 7 14
1956040N07092 1956 16 NI BB NOT_NAMED 1956-02-10 03:00:00 TS 9.90832 90.5884 main 699 699 P________PO___ IO011956 9.91248 90.5826 -1 9.91248 90.5826 TC 25 9.90000 90.6000 1 9 31
1956040N07092 1956 16 NI BB NOT_NAMED 1956-02-10 06:00:00 TS 10.3334 90.8907 main 708 648 O________OP___ jtwc_io IO011956 10.3000 90.9000 -1 10.3000 90.9000 TC 25 10.4001 90.8721 1 12 34
1956040N07092 1956 16 NI BB NOT_NAMED 1956-02-10 09:00:00 TS 10.9067 91.2605 main 643 562 P________PP___ IO011956 10.8850 91.2624 -1 10.8850 91.2624 TC 25 10.9502 91.2565 1 14 34
1956040N07092 1956 16 NI BB NOT_NAMED 1956-02-10 12:00:00 TS 11.5000 91.7043 main 562 487 O________OP___ jtwc_io IO011956 11.5000 91.7000 -1 11.5000 91.7000 TC 25 11.5001 91.7128 1 14 40
1956040N07092 1956 16 NI BB NOT_NAMED 1956-02-10 15:00:00 TS 11.9967 92.1950 main 487 422 P________PO___ IO011956 11.9950 92.1925 -1 11.9950 92.1925 TC 25 12.0000 92.2000 1 13 47
1956040N07092 1956 16 NI BB NOT_NAMED 1956-02-10 18:00:00 TS 12.4050 92.6936 main 422 374 O________OP___ jtwc_io IO011956 12.4000 92.7000 -1 12.4000 92.7000 TC 25 12.4126 92.6840 1 12 52
1956040N07092 1956 16 NI BB NOT_NAMED 1956-02-10 21:00:00 TS 12.7345 93.1628 main 370 325 P________PP___ IO011956 12.7226 93.1649 -1 12.7226 93.1649 TC 25 12.7503 93.1600 1 11 56
1956040N07092 1956 16 NI BB NOT_NAMED 1956-02-11 00:00:00 TS 13.0189 93.6155 main 325 281 O________OP___ jtwc_io IO011956 13.0000 93.6000 -1 13.0000 93.6000 TC 25 13.0379 93.6311 1 11 58
1956040N07092 1956 16 NI BB NOT_NAMED 1956-02-11 03:00:00 NR 13.3000 94.1000 main 281 __________O___ IO011956 -1 TC 13.3000 94.1000 1 11 59

About IBTrACS Database

This database is a web-friendly format of International Best Track Archive for Climate Stewardship (IBTrACS), a global best track data archive curated by NOAA dating back to 1842.

Updated: 2021-10-08